sensor_id;sensor_type;location;lat;lon;timestamp;P1;durP1;ratioP1;P2;durP2;ratioP2
6626;SDS011;3349;49.830;8.748;2023-04-25T00:01:26;6.40;;;5.78;;
6626;SDS011;3349;49.830;8.748;2023-04-25T00:03:53;6.30;;;5.68;;
6626;SDS011;3349;49.830;8.748;2023-04-25T00:06:21;7.80;;;6.38;;
6626;SDS011;3349;49.830;8.748;2023-04-25T00:08:51;6.55;;;5.82;;
6626;SDS011;3349;49.830;8.748;2023-04-25T00:11:18;7.15;;;6.10;;
6626;SDS011;3349;49.830;8.748;2023-04-25T00:13:44;6.63;;;5.53;;
6626;SDS011;3349;49.830;8.748;2023-04-25T00:16:11;7.15;;;5.85;;
6626;SDS011;3349;49.830;8.748;2023-04-25T00:18:39;8.38;;;5.88;;
6626;SDS011;3349;49.830;8.748;2023-04-25T00:21:06;7.00;;;6.07;;
6626;SDS011;3349;49.830;8.748;2023-04-25T00:23:34;5.95;;;5.35;;
6626;SDS011;3349;49.830;8.748;2023-04-25T00:26:01;6.00;;;5.40;;
6626;SDS011;3349;49.830;8.748;2023-04-25T00:28:28;7.95;;;6.00;;
6626;SDS011;3349;49.830;8.748;2023-04-25T00:30:55;6.97;;;5.07;;
6626;SDS011;3349;49.830;8.748;2023-04-25T00:33:21;7.57;;;6.25;;
6626;SDS011;3349;49.830;8.748;2023-04-25T00:35:48;8.50;;;6.10;;
6626;SDS011;3349;49.830;8.748;2023-04-25T00:38:15;6.75;;;5.88;;
6626;SDS011;3349;49.830;8.748;2023-04-25T00:40:43;6.72;;;5.60;;
6626;SDS011;3349;49.830;8.748;2023-04-25T00:43:09;6.65;;;5.88;;
6626;SDS011;3349;49.830;8.748;2023-04-25T00:45:37;7.93;;;6.00;;
6626;SDS011;3349;49.830;8.748;2023-04-25T00:48:06;7.78;;;5.95;;
6626;SDS011;3349;49.830;8.748;2023-04-25T00:50:33;8.32;;;6.32;;
6626;SDS011;3349;49.830;8.748;2023-04-25T00:53:01;10.35;;;6.75;;
6626;SDS011;3349;49.830;8.748;2023-04-25T00:55:28;7.53;;;6.63;;
6626;SDS011;3349;49.830;8.748;2023-04-25T00:57:57;7.53;;;6.55;;
6626;SDS011;3349;49.830;8.748;2023-04-25T01:00:24;8.27;;;7.05;;
6626;SDS011;3349;49.830;8.748;2023-04-25T01:02:51;8.70;;;7.43;;
6626;SDS011;3349;49.830;8.748;2023-04-25T01:05:18;8.20;;;7.38;;
6626;SDS011;3349;49.830;8.748;2023-04-25T01:07:45;8.70;;;6.75;;
6626;SDS011;3349;49.830;8.748;2023-04-25T01:10:12;9.98;;;7.22;;
6626;SDS011;3349;49.830;8.748;2023-04-25T01:12:40;8.55;;;6.97;;
6626;SDS011;3349;49.830;8.748;2023-04-25T01:15:08;9.63;;;6.70;;
6626;SDS011;3349;49.830;8.748;2023-04-25T01:17:35;8.30;;;6.65;;
6626;SDS011;3349;49.830;8.748;2023-04-25T01:20:03;8.48;;;6.43;;
6626;SDS011;3349;49.830;8.748;2023-04-25T01:22:31;6.90;;;6.18;;
6626;SDS011;3349;49.830;8.748;2023-04-25T01:24:58;9.63;;;6.93;;
6626;SDS011;3349;49.830;8.748;2023-04-25T01:27:26;9.55;;;7.32;;
6626;SDS011;3349;49.830;8.748;2023-04-25T01:29:53;7.90;;;6.20;;
6626;SDS011;3349;49.830;8.748;2023-04-25T01:32:20;8.85;;;6.90;;
6626;SDS011;3349;49.830;8.748;2023-04-25T01:34:48;7.40;;;6.47;;
6626;SDS011;3349;49.830;8.748;2023-04-25T01:37:15;10.30;;;6.57;;
6626;SDS011;3349;49.830;8.748;2023-04-25T01:39:44;7.05;;;6.35;;
6626;SDS011;3349;49.830;8.748;2023-04-25T01:42:10;8.48;;;6.75;;
6626;SDS011;3349;49.830;8.748;2023-04-25T01:44:38;6.75;;;6.05;;
6626;SDS011;3349;49.830;8.748;2023-04-25T01:47:05;8.52;;;6.43;;
6626;SDS011;3349;49.830;8.748;2023-04-25T01:49:32;8.65;;;7.75;;
6626;SDS011;3349;49.830;8.748;2023-04-25T01:51:58;7.45;;;6.55;;
6626;SDS011;3349;49.830;8.748;2023-04-25T01:54:26;8.80;;;7.25;;
6626;SDS011;3349;49.830;8.748;2023-04-25T01:56:55;8.27;;;7.05;;
6626;SDS011;3349;49.830;8.748;2023-04-25T01:59:23;8.50;;;6.68;;
6626;SDS011;3349;49.830;8.748;2023-04-25T02:01:50;10.00;;;7.35;;
6626;SDS011;3349;49.830;8.748;2023-04-25T02:04:17;8.13;;;6.65;;
6626;SDS011;3349;49.830;8.748;2023-04-25T02:06:43;7.63;;;6.82;;
6626;SDS011;3349;49.830;8.748;2023-04-25T02:09:10;9.63;;;6.85;;
6626;SDS011;3349;49.830;8.748;2023-04-25T02:11:37;8.73;;;7.03;;
6626;SDS011;3349;49.830;8.748;2023-04-25T02:14:05;10.00;;;7.35;;
6626;SDS011;3349;49.830;8.748;2023-04-25T02:16:32;8.07;;;6.88;;
6626;SDS011;3349;49.830;8.748;2023-04-25T02:19:00;8.30;;;7.07;;
6626;SDS011;3349;49.830;8.748;2023-04-25T02:21:27;8.13;;;7.20;;
6626;SDS011;3349;49.830;8.748;2023-04-25T02:23:54;8.00;;;7.15;;
6626;SDS011;3349;49.830;8.748;2023-04-25T02:26:20;8.30;;;7.03;;
6626;SDS011;3349;49.830;8.748;2023-04-25T02:28:48;8.32;;;6.45;;
6626;SDS011;3349;49.830;8.748;2023-04-25T02:31:17;7.65;;;6.90;;
6626;SDS011;3349;49.830;8.748;2023-04-25T02:33:43;7.40;;;6.70;;
6626;SDS011;3349;49.830;8.748;2023-04-25T02:36:10;7.13;;;6.43;;
6626;SDS011;3349;49.830;8.748;2023-04-25T02:38:37;7.72;;;6.93;;
6626;SDS011;3349;49.830;8.748;2023-04-25T02:41:04;8.40;;;7.35;;
6626;SDS011;3349;49.830;8.748;2023-04-25T02:43:30;9.15;;;8.23;;
6626;SDS011;3349;49.830;8.748;2023-04-25T02:45:57;9.15;;;8.02;;
6626;SDS011;3349;49.830;8.748;2023-04-25T02:48:25;9.48;;;7.90;;
6626;SDS011;3349;49.830;8.748;2023-04-25T02:50:52;9.23;;;7.95;;
6626;SDS011;3349;49.830;8.748;2023-04-25T02:53:18;9.40;;;8.00;;
6626;SDS011;3349;49.830;8.748;2023-04-25T02:55:45;9.25;;;8.25;;
6626;SDS011;3349;49.830;8.748;2023-04-25T02:58:12;8.93;;;8.02;;
6626;SDS011;3349;49.830;8.748;2023-04-25T03:00:38;9.10;;;7.70;;
6626;SDS011;3349;49.830;8.748;2023-04-25T03:03:05;8.80;;;7.90;;
6626;SDS011;3349;49.830;8.748;2023-04-25T03:05:33;9.57;;;8.13;;
6626;SDS011;3349;49.830;8.748;2023-04-25T03:08:00;9.18;;;7.63;;
6626;SDS011;3349;49.830;8.748;2023-04-25T03:10:27;10.55;;;8.32;;
6626;SDS011;3349;49.830;8.748;2023-04-25T03:12:53;8.98;;;8.00;;
6626;SDS011;3349;49.830;8.748;2023-04-25T03:15:20;9.52;;;8.00;;
6626;SDS011;3349;49.830;8.748;2023-04-25T03:17:48;10.05;;;8.38;;
6626;SDS011;3349;49.830;8.748;2023-04-25T03:20:14;10.88;;;8.40;;
6626;SDS011;3349;49.830;8.748;2023-04-25T03:22:42;9.88;;;8.57;;
6626;SDS011;3349;49.830;8.748;2023-04-25T03:25:09;10.13;;;8.43;;
6626;SDS011;3349;49.830;8.748;2023-04-25T03:27:36;9.95;;;8.52;;
6626;SDS011;3349;49.830;8.748;2023-04-25T03:30:03;10.10;;;8.80;;
6626;SDS011;3349;49.830;8.748;2023-04-25T03:32:31;10.32;;;8.27;;
6626;SDS011;3349;49.830;8.748;2023-04-25T03:34:58;10.57;;;8.45;;
6626;SDS011;3349;49.830;8.748;2023-04-25T03:37:24;9.95;;;8.63;;
6626;SDS011;3349;49.830;8.748;2023-04-25T03:39:52;10.80;;;9.02;;
6626;SDS011;3349;49.830;8.748;2023-04-25T03:42:19;10.18;;;8.63;;
6626;SDS011;3349;49.830;8.748;2023-04-25T03:44:47;10.90;;;8.85;;
6626;SDS011;3349;49.830;8.748;2023-04-25T03:47:14;10.70;;;8.93;;
6626;SDS011;3349;49.830;8.748;2023-04-25T03:49:41;13.63;;;10.40;;
6626;SDS011;3349;49.830;8.748;2023-04-25T03:52:08;10.85;;;9.02;;
6626;SDS011;3349;49.830;8.748;2023-04-25T03:54:34;11.57;;;9.55;;
6626;SDS011;3349;49.830;8.748;2023-04-25T03:57:02;11.75;;;9.82;;
6626;SDS011;3349;49.830;8.748;2023-04-25T03:59:29;12.65;;;9.65;;
6626;SDS011;3349;49.830;8.748;2023-04-25T04:01:56;11.40;;;9.27;;
6626;SDS011;3349;49.830;8.748;2023-04-25T04:04:23;12.30;;;9.40;;
6626;SDS011;3349;49.830;8.748;2023-04-25T04:06:49;11.80;;;9.90;;
6626;SDS011;3349;49.830;8.748;2023-04-25T04:09:17;12.25;;;9.98;;
6626;SDS011;3349;49.830;8.748;2023-04-25T04:11:45;15.90;;;9.85;;
6626;SDS011;3349;49.830;8.748;2023-04-25T04:14:13;13.73;;;10.05;;
6626;SDS011;3349;49.830;8.748;2023-04-25T04:16:40;13.77;;;10.45;;
6626;SDS011;3349;49.830;8.748;2023-04-25T04:19:06;12.98;;;10.60;;
6626;SDS011;3349;49.830;8.748;2023-04-25T04:21:33;14.18;;;10.18;;
6626;SDS011;3349;49.830;8.748;2023-04-25T04:24:00;16.17;;;10.52;;
6626;SDS011;3349;49.830;8.748;2023-04-25T04:26:27;13.80;;;10.43;;
6626;SDS011;3349;49.830;8.748;2023-04-25T04:28:53;14.65;;;10.32;;
6626;SDS011;3349;49.830;8.748;2023-04-25T04:31:22;13.88;;;10.30;;
6626;SDS011;3349;49.830;8.748;2023-04-25T04:33:48;13.02;;;10.18;;
6626;SDS011;3349;49.830;8.748;2023-04-25T04:36:15;14.45;;;10.70;;
6626;SDS011;3349;49.830;8.748;2023-04-25T04:38:44;12.40;;;10.40;;
6626;SDS011;3349;49.830;8.748;2023-04-25T04:41:11;16.02;;;11.55;;
6626;SDS011;3349;49.830;8.748;2023-04-25T04:43:38;16.52;;;10.85;;
6626;SDS011;3349;49.830;8.748;2023-04-25T04:46:05;13.63;;;10.55;;
6626;SDS011;3349;49.830;8.748;2023-04-25T04:48:33;14.43;;;10.85;;
6626;SDS011;3349;49.830;8.748;2023-04-25T04:51:00;15.20;;;10.68;;
6626;SDS011;3349;49.830;8.748;2023-04-25T04:53:27;13.18;;;10.40;;
6626;SDS011;3349;49.830;8.748;2023-04-25T04:55:53;13.80;;;11.30;;
6626;SDS011;3349;49.830;8.748;2023-04-25T04:58:21;12.77;;;10.65;;
6626;SDS011;3349;49.830;8.748;2023-04-25T05:00:48;14.70;;;11.15;;
6626;SDS011;3349;49.830;8.748;2023-04-25T05:03:14;15.27;;;10.35;;
6626;SDS011;3349;49.830;8.748;2023-04-25T05:05:42;14.30;;;11.07;;
6626;SDS011;3349;49.830;8.748;2023-04-25T05:08:10;15.15;;;11.68;;
6626;SDS011;3349;49.830;8.748;2023-04-25T05:10:37;16.88;;;11.48;;
6626;SDS011;3349;49.830;8.748;2023-04-25T05:13:04;15.25;;;9.88;;
6626;SDS011;3349;49.830;8.748;2023-04-25T05:15:30;16.52;;;10.52;;
6626;SDS011;3349;49.830;8.748;2023-04-25T05:17:58;17.55;;;10.75;;
6626;SDS011;3349;49.830;8.748;2023-04-25T05:20:24;15.07;;;10.10;;
6626;SDS011;3349;49.830;8.748;2023-04-25T05:22:53;13.80;;;9.55;;
6626;SDS011;3349;49.830;8.748;2023-04-25T05:25:19;13.98;;;8.93;;
6626;SDS011;3349;49.830;8.748;2023-04-25T05:27:46;18.35;;;9.27;;
6626;SDS011;3349;49.830;8.748;2023-04-25T05:30:13;15.35;;;9.10;;
6626;SDS011;3349;49.830;8.748;2023-04-25T05:32:39;16.67;;;9.20;;
6626;SDS011;3349;49.830;8.748;2023-04-25T05:35:07;14.10;;;8.52;;
6626;SDS011;3349;49.830;8.748;2023-04-25T05:37:34;12.07;;;7.72;;
6626;SDS011;3349;49.830;8.748;2023-04-25T05:40:03;10.98;;;7.57;;
6626;SDS011;3349;49.830;8.748;2023-04-25T05:42:31;14.13;;;7.68;;
6626;SDS011;3349;49.830;8.748;2023-04-25T05:44:58;14.57;;;7.55;;
6626;SDS011;3349;49.830;8.748;2023-04-25T05:47:25;18.40;;;8.10;;
6626;SDS011;3349;49.830;8.748;2023-04-25T05:49:52;14.13;;;7.82;;
6626;SDS011;3349;49.830;8.748;2023-04-25T05:52:18;14.15;;;7.85;;
6626;SDS011;3349;49.830;8.748;2023-04-25T05:54:45;16.45;;;8.13;;
6626;SDS011;3349;49.830;8.748;2023-04-25T05:57:19;15.05;;;8.57;;
6626;SDS011;3349;49.830;8.748;2023-04-25T05:59:47;19.17;;;8.65;;
6626;SDS011;3349;49.830;8.748;2023-04-25T06:02:13;15.68;;;8.55;;
6626;SDS011;3349;49.830;8.748;2023-04-25T06:04:40;15.98;;;9.18;;
6626;SDS011;3349;49.830;8.748;2023-04-25T06:07:07;15.60;;;8.45;;
6626;SDS011;3349;49.830;8.748;2023-04-25T06:09:33;16.05;;;7.72;;
6626;SDS011;3349;49.830;8.748;2023-04-25T06:12:00;13.27;;;7.65;;
6626;SDS011;3349;49.830;8.748;2023-04-25T06:14:29;18.13;;;9.32;;
6626;SDS011;3349;49.830;8.748;2023-04-25T06:16:56;16.45;;;8.52;;
6626;SDS011;3349;49.830;8.748;2023-04-25T06:19:23;16.98;;;8.23;;
6626;SDS011;3349;49.830;8.748;2023-04-25T06:21:49;18.83;;;8.30;;
6626;SDS011;3349;49.830;8.748;2023-04-25T06:24:16;16.48;;;8.18;;
6626;SDS011;3349;49.830;8.748;2023-04-25T06:26:43;15.48;;;8.75;;
6626;SDS011;3349;49.830;8.748;2023-04-25T06:29:09;17.00;;;8.80;;
6626;SDS011;3349;49.830;8.748;2023-04-25T06:31:37;17.10;;;8.98;;
6626;SDS011;3349;49.830;8.748;2023-04-25T06:34:04;18.40;;;9.00;;
6626;SDS011;3349;49.830;8.748;2023-04-25T06:36:31;15.95;;;8.75;;
6626;SDS011;3349;49.830;8.748;2023-04-25T06:38:57;18.48;;;9.15;;
6626;SDS011;3349;49.830;8.748;2023-04-25T06:41:24;13.73;;;8.70;;
6626;SDS011;3349;49.830;8.748;2023-04-25T06:43:51;15.32;;;9.10;;
6626;SDS011;3349;49.830;8.748;2023-04-25T06:46:17;16.80;;;9.13;;
6626;SDS011;3349;49.830;8.748;2023-04-25T06:48:45;16.38;;;8.32;;
6626;SDS011;3349;49.830;8.748;2023-04-25T06:51:12;17.85;;;9.18;;
6626;SDS011;3349;49.830;8.748;2023-04-25T06:53:39;13.70;;;9.10;;
6626;SDS011;3349;49.830;8.748;2023-04-25T06:56:06;16.08;;;8.70;;
6626;SDS011;3349;49.830;8.748;2023-04-25T06:58:33;15.30;;;8.95;;
6626;SDS011;3349;49.830;8.748;2023-04-25T07:00:59;12.60;;;8.55;;
6626;SDS011;3349;49.830;8.748;2023-04-25T07:03:26;19.55;;;9.43;;
6626;SDS011;3349;49.830;8.748;2023-04-25T07:05:55;13.48;;;8.68;;
6626;SDS011;3349;49.830;8.748;2023-04-25T07:08:21;14.63;;;8.68;;
6626;SDS011;3349;49.830;8.748;2023-04-25T07:10:48;11.35;;;8.35;;
6626;SDS011;3349;49.830;8.748;2023-04-25T07:13:15;15.48;;;8.10;;
6626;SDS011;3349;49.830;8.748;2023-04-25T07:15:42;13.70;;;7.63;;
6626;SDS011;3349;49.830;8.748;2023-04-25T07:18:10;13.63;;;8.10;;
6626;SDS011;3349;49.830;8.748;2023-04-25T07:20:37;17.80;;;8.05;;
6626;SDS011;3349;49.830;8.748;2023-04-25T07:23:05;13.05;;;8.15;;
6626;SDS011;3349;49.830;8.748;2023-04-25T07:25:31;14.00;;;7.82;;
6626;SDS011;3349;49.830;8.748;2023-04-25T07:27:58;15.50;;;7.50;;
6626;SDS011;3349;49.830;8.748;2023-04-25T07:30:25;11.52;;;7.63;;
6626;SDS011;3349;49.830;8.748;2023-04-25T07:32:51;14.05;;;8.45;;
6626;SDS011;3349;49.830;8.748;2023-04-25T07:35:18;15.20;;;8.05;;
6626;SDS011;3349;49.830;8.748;2023-04-25T07:37:45;13.73;;;7.65;;
6626;SDS011;3349;49.830;8.748;2023-04-25T07:40:13;13.85;;;7.90;;
6626;SDS011;3349;49.830;8.748;2023-04-25T07:42:41;13.18;;;7.68;;
6626;SDS011;3349;49.830;8.748;2023-04-25T07:45:08;8.73;;;6.85;;
6626;SDS011;3349;49.830;8.748;2023-04-25T07:47:35;11.88;;;6.80;;
6626;SDS011;3349;49.830;8.748;2023-04-25T07:50:03;14.10;;;6.65;;
6626;SDS011;3349;49.830;8.748;2023-04-25T07:52:30;11.32;;;6.88;;
6626;SDS011;3349;49.830;8.748;2023-04-25T07:54:57;11.80;;;6.78;;
6626;SDS011;3349;49.830;8.748;2023-04-25T07:57:26;11.48;;;6.68;;
6626;SDS011;3349;49.830;8.748;2023-04-25T07:59:53;11.23;;;7.00;;
6626;SDS011;3349;49.830;8.748;2023-04-25T08:02:20;11.23;;;6.57;;
6626;SDS011;3349;49.830;8.748;2023-04-25T08:04:47;12.65;;;6.97;;
6626;SDS011;3349;49.830;8.748;2023-04-25T08:07:14;13.02;;;6.50;;
6626;SDS011;3349;49.830;8.748;2023-04-25T08:09:41;10.45;;;6.38;;
6626;SDS011;3349;49.830;8.748;2023-04-25T08:12:07;12.02;;;6.45;;
6626;SDS011;3349;49.830;8.748;2023-04-25T08:14:36;9.98;;;6.20;;
6626;SDS011;3349;49.830;8.748;2023-04-25T08:17:04;9.38;;;5.47;;
6626;SDS011;3349;49.830;8.748;2023-04-25T08:19:31;8.93;;;5.85;;
6626;SDS011;3349;49.830;8.748;2023-04-25T08:21:58;10.32;;;5.45;;
6626;SDS011;3349;49.830;8.748;2023-04-25T08:24:24;10.73;;;6.18;;
6626;SDS011;3349;49.830;8.748;2023-04-25T08:26:51;11.85;;;5.63;;
6626;SDS011;3349;49.830;8.748;2023-04-25T08:29:18;11.35;;;6.05;;
6626;SDS011;3349;49.830;8.748;2023-04-25T08:31:46;10.32;;;5.72;;
6626;SDS011;3349;49.830;8.748;2023-04-25T08:34:13;13.52;;;6.50;;
6626;SDS011;3349;49.830;8.748;2023-04-25T08:36:40;9.23;;;5.65;;
6626;SDS011;3349;49.830;8.748;2023-04-25T08:39:07;12.10;;;5.85;;
6626;SDS011;3349;49.830;8.748;2023-04-25T08:41:34;10.07;;;5.47;;
6626;SDS011;3349;49.830;8.748;2023-04-25T08:44:02;12.80;;;5.72;;
6626;SDS011;3349;49.830;8.748;2023-04-25T08:46:29;10.38;;;5.18;;
6626;SDS011;3349;49.830;8.748;2023-04-25T08:49:00;8.73;;;4.95;;
6626;SDS011;3349;49.830;8.748;2023-04-25T08:51:27;6.78;;;4.70;;
6626;SDS011;3349;49.830;8.748;2023-04-25T08:54:11;9.55;;;4.93;;
6626;SDS011;3349;49.830;8.748;2023-04-25T08:56:38;10.15;;;5.13;;
6626;SDS011;3349;49.830;8.748;2023-04-25T08:59:10;7.80;;;4.70;;
6626;SDS011;3349;49.830;8.748;2023-04-25T09:01:37;9.52;;;5.07;;
6626;SDS011;3349;49.830;8.748;2023-04-25T09:04:05;8.38;;;4.60;;
6626;SDS011;3349;49.830;8.748;2023-04-25T09:06:32;7.53;;;4.43;;
6626;SDS011;3349;49.830;8.748;2023-04-25T09:09:01;6.88;;;3.78;;
6626;SDS011;3349;49.830;8.748;2023-04-25T09:11:30;8.13;;;4.45;;
6626;SDS011;3349;49.830;8.748;2023-04-25T09:14:09;7.20;;;4.00;;
6626;SDS011;3349;49.830;8.748;2023-04-25T09:16:59;7.32;;;4.22;;
6626;SDS011;3349;49.830;8.748;2023-04-25T09:19:29;6.35;;;4.03;;
6626;SDS011;3349;49.830;8.748;2023-04-25T09:21:58;7.55;;;3.67;;
6626;SDS011;3349;49.830;8.748;2023-04-25T09:24:32;7.70;;;4.05;;
6626;SDS011;3349;49.830;8.748;2023-04-25T09:27:02;5.70;;;3.53;;
6626;SDS011;3349;49.830;8.748;2023-04-25T09:29:30;9.10;;;3.75;;
6626;SDS011;3349;49.830;8.748;2023-04-25T09:32:10;6.93;;;3.78;;
6626;SDS011;3349;49.830;8.748;2023-04-25T09:34:40;7.85;;;3.53;;
6626;SDS011;3349;49.830;8.748;2023-04-25T09:37:08;8.05;;;3.95;;
6626;SDS011;3349;49.830;8.748;2023-04-25T09:39:35;6.05;;;3.90;;
6626;SDS011;3349;49.830;8.748;2023-04-25T09:42:03;5.43;;;3.60;;
6626;SDS011;3349;49.830;8.748;2023-04-25T09:44:30;8.45;;;4.07;;
6626;SDS011;3349;49.830;8.748;2023-04-25T09:46:56;7.05;;;3.92;;
6626;SDS011;3349;49.830;8.748;2023-04-25T09:49:24;6.32;;;4.03;;
6626;SDS011;3349;49.830;8.748;2023-04-25T09:51:56;4.85;;;3.60;;
6626;SDS011;3349;49.830;8.748;2023-04-25T09:54:23;9.35;;;4.25;;
6626;SDS011;3349;49.830;8.748;2023-04-25T09:56:51;7.03;;;3.60;;
6626;SDS011;3349;49.830;8.748;2023-04-25T09:59:19;8.55;;;3.58;;
6626;SDS011;3349;49.830;8.748;2023-04-25T10:01:47;4.53;;;3.65;;
6626;SDS011;3349;49.830;8.748;2023-04-25T10:04:16;6.05;;;3.70;;
6626;SDS011;3349;49.830;8.748;2023-04-25T10:06:46;6.15;;;3.85;;
6626;SDS011;3349;49.830;8.748;2023-04-25T10:09:16;6.45;;;3.50;;
6626;SDS011;3349;49.830;8.748;2023-04-25T10:11:46;5.35;;;3.35;;
6626;SDS011;3349;49.830;8.748;2023-04-25T10:14:13;6.07;;;3.70;;
6626;SDS011;3349;49.830;8.748;2023-04-25T10:16:41;8.88;;;3.90;;
6626;SDS011;3349;49.830;8.748;2023-04-25T10:19:09;9.40;;;4.03;;
6626;SDS011;3349;49.830;8.748;2023-04-25T10:21:36;7.90;;;3.47;;
6626;SDS011;3349;49.830;8.748;2023-04-25T10:24:12;5.70;;;3.72;;
6626;SDS011;3349;49.830;8.748;2023-04-25T10:26:40;5.88;;;3.80;;
6626;SDS011;3349;49.830;8.748;2023-04-25T10:29:08;7.15;;;3.70;;
6626;SDS011;3349;49.830;8.748;2023-04-25T10:31:44;8.93;;;4.40;;
6626;SDS011;3349;49.830;8.748;2023-04-25T10:34:11;5.90;;;3.80;;
6626;SDS011;3349;49.830;8.748;2023-04-25T10:36:38;5.50;;;3.88;;
6626;SDS011;3349;49.830;8.748;2023-04-25T10:39:06;6.93;;;3.40;;
6626;SDS011;3349;49.830;8.748;2023-04-25T10:41:46;5.78;;;3.88;;
6626;SDS011;3349;49.830;8.748;2023-04-25T10:44:14;5.40;;;3.67;;
6626;SDS011;3349;49.830;8.748;2023-04-25T10:46:41;6.57;;;3.40;;
6626;SDS011;3349;49.830;8.748;2023-04-25T10:49:10;7.47;;;4.03;;
6626;SDS011;3349;49.830;8.748;2023-04-25T10:51:58;6.43;;;3.80;;
6626;SDS011;3349;49.830;8.748;2023-04-25T10:54:40;7.45;;;3.65;;
6626;SDS011;3349;49.830;8.748;2023-04-25T10:57:08;8.07;;;4.18;;
6626;SDS011;3349;49.830;8.748;2023-04-25T10:59:53;6.85;;;4.07;;
6626;SDS011;3349;49.830;8.748;2023-04-25T11:02:20;4.53;;;3.63;;
6626;SDS011;3349;49.830;8.748;2023-04-25T11:04:51;7.40;;;4.00;;
6626;SDS011;3349;49.830;8.748;2023-04-25T11:07:22;6.20;;;3.97;;
6626;SDS011;3349;49.830;8.748;2023-04-25T11:09:54;5.55;;;4.05;;
6626;SDS011;3349;49.830;8.748;2023-04-25T11:12:24;8.35;;;4.80;;
6626;SDS011;3349;49.830;8.748;2023-04-25T11:14:57;7.70;;;4.70;;
6626;SDS011;3349;49.830;8.748;2023-04-25T11:17:26;5.47;;;4.10;;
6626;SDS011;3349;49.830;8.748;2023-04-25T11:19:53;7.47;;;4.28;;
6626;SDS011;3349;49.830;8.748;2023-04-25T11:22:21;7.00;;;4.60;;
6626;SDS011;3349;49.830;8.748;2023-04-25T11:24:48;6.30;;;5.18;;
6626;SDS011;3349;49.830;8.748;2023-04-25T11:27:15;7.32;;;4.93;;
6626;SDS011;3349;49.830;8.748;2023-04-25T11:29:43;8.20;;;4.93;;
6626;SDS011;3349;49.830;8.748;2023-04-25T11:32:10;8.35;;;5.50;;
6626;SDS011;3349;49.830;8.748;2023-04-25T11:34:36;9.85;;;4.97;;
6626;SDS011;3349;49.830;8.748;2023-04-25T11:37:03;11.65;;;5.53;;
6626;SDS011;3349;49.830;8.748;2023-04-25T11:39:31;6.68;;;4.85;;
6626;SDS011;3349;49.830;8.748;2023-04-25T11:41:57;9.75;;;4.88;;
6626;SDS011;3349;49.830;8.748;2023-04-25T11:44:26;10.02;;;4.43;;
6626;SDS011;3349;49.830;8.748;2023-04-25T11:46:56;5.95;;;3.63;;
6626;SDS011;3349;49.830;8.748;2023-04-25T11:49:22;6.13;;;3.97;;
6626;SDS011;3349;49.830;8.748;2023-04-25T11:51:49;6.10;;;4.20;;
6626;SDS011;3349;49.830;8.748;2023-04-25T11:54:16;5.68;;;3.95;;
6626;SDS011;3349;49.830;8.748;2023-04-25T11:56:43;10.02;;;4.88;;
6626;SDS011;3349;49.830;8.748;2023-04-25T11:59:11;7.30;;;4.22;;
6626;SDS011;3349;49.830;8.748;2023-04-25T12:01:39;6.15;;;4.10;;
6626;SDS011;3349;49.830;8.748;2023-04-25T12:04:12;8.13;;;5.38;;
6626;SDS011;3349;49.830;8.748;2023-04-25T12:06:39;11.20;;;5.47;;
6626;SDS011;3349;49.830;8.748;2023-04-25T12:09:07;9.07;;;5.47;;
6626;SDS011;3349;49.830;8.748;2023-04-25T12:11:40;8.63;;;5.10;;
6626;SDS011;3349;49.830;8.748;2023-04-25T12:14:08;6.68;;;5.05;;
6626;SDS011;3349;49.830;8.748;2023-04-25T12:16:46;10.68;;;5.25;;
6626;SDS011;3349;49.830;8.748;2023-04-25T12:19:15;9.35;;;5.25;;
6626;SDS011;3349;49.830;8.748;2023-04-25T12:21:43;9.18;;;4.82;;
6626;SDS011;3349;49.830;8.748;2023-04-25T12:24:11;7.97;;;5.18;;
6626;SDS011;3349;49.830;8.748;2023-04-25T12:26:46;8.00;;;5.00;;
6626;SDS011;3349;49.830;8.748;2023-04-25T12:29:17;9.02;;;5.00;;
6626;SDS011;3349;49.830;8.748;2023-04-25T12:31:44;9.05;;;5.50;;
6626;SDS011;3349;49.830;8.748;2023-04-25T12:34:11;13.45;;;4.85;;
6626;SDS011;3349;49.830;8.748;2023-04-25T12:36:39;6.68;;;5.00;;
6626;SDS011;3349;49.830;8.748;2023-04-25T12:39:06;7.90;;;5.07;;
6626;SDS011;3349;49.830;8.748;2023-04-25T12:41:33;8.70;;;4.88;;
6626;SDS011;3349;49.830;8.748;2023-04-25T12:44:00;9.00;;;4.75;;
6626;SDS011;3349;49.830;8.748;2023-04-25T12:46:26;10.13;;;5.32;;
6626;SDS011;3349;49.830;8.748;2023-04-25T12:48:53;10.82;;;4.88;;
6626;SDS011;3349;49.830;8.748;2023-04-25T12:51:21;8.73;;;5.05;;
6626;SDS011;3349;49.830;8.748;2023-04-25T12:53:51;9.45;;;4.63;;
6626;SDS011;3349;49.830;8.748;2023-04-25T12:56:18;7.70;;;4.75;;
6626;SDS011;3349;49.830;8.748;2023-04-25T12:58:45;10.18;;;5.18;;
6626;SDS011;3349;49.830;8.748;2023-04-25T13:01:13;7.50;;;4.68;;
6626;SDS011;3349;49.830;8.748;2023-04-25T13:03:39;9.10;;;4.90;;
6626;SDS011;3349;49.830;8.748;2023-04-25T13:06:06;7.47;;;4.38;;
6626;SDS011;3349;49.830;8.748;2023-04-25T13:08:33;10.00;;;4.82;;
6626;SDS011;3349;49.830;8.748;2023-04-25T13:11:03;6.18;;;3.90;;
6626;SDS011;3349;49.830;8.748;2023-04-25T13:13:30;8.18;;;4.22;;
6626;SDS011;3349;49.830;8.748;2023-04-25T13:15:59;6.90;;;4.30;;
6626;SDS011;3349;49.830;8.748;2023-04-25T13:18:26;8.63;;;4.20;;
6626;SDS011;3349;49.830;8.748;2023-04-25T13:20:53;6.55;;;3.97;;
6626;SDS011;3349;49.830;8.748;2023-04-25T13:23:21;10.05;;;4.18;;
6626;SDS011;3349;49.830;8.748;2023-04-25T13:25:47;8.35;;;4.40;;
6626;SDS011;3349;49.830;8.748;2023-04-25T13:28:16;10.68;;;4.40;;
6626;SDS011;3349;49.830;8.748;2023-04-25T13:30:43;7.90;;;4.38;;
6626;SDS011;3349;49.830;8.748;2023-04-25T13:33:10;7.68;;;3.97;;
6626;SDS011;3349;49.830;8.748;2023-04-25T13:35:37;9.65;;;3.95;;
6626;SDS011;3349;49.830;8.748;2023-04-25T13:38:04;8.10;;;4.22;;
6626;SDS011;3349;49.830;8.748;2023-04-25T13:40:31;7.10;;;3.95;;
6626;SDS011;3349;49.830;8.748;2023-04-25T13:42:58;6.38;;;3.90;;
6626;SDS011;3349;49.830;8.748;2023-04-25T13:45:28;10.45;;;4.05;;
6626;SDS011;3349;49.830;8.748;2023-04-25T13:47:55;8.88;;;4.18;;
6626;SDS011;3349;49.830;8.748;2023-04-25T13:50:22;10.55;;;4.25;;
6626;SDS011;3349;49.830;8.748;2023-04-25T13:52:48;6.82;;;4.00;;
6626;SDS011;3349;49.830;8.748;2023-04-25T13:55:15;9.80;;;3.92;;
6626;SDS011;3349;49.830;8.748;2023-04-25T13:57:42;6.53;;;3.63;;
6626;SDS011;3349;49.830;8.748;2023-04-25T14:00:09;14.60;;;3.97;;
6626;SDS011;3349;49.830;8.748;2023-04-25T14:02:38;10.07;;;4.20;;
6626;SDS011;3349;49.830;8.748;2023-04-25T14:05:05;7.72;;;3.85;;
6626;SDS011;3349;49.830;8.748;2023-04-25T14:07:34;6.20;;;3.80;;
6626;SDS011;3349;49.830;8.748;2023-04-25T14:10:02;13.73;;;3.90;;
6626;SDS011;3349;49.830;8.748;2023-04-25T14:12:29;10.05;;;4.03;;
6626;SDS011;3349;49.830;8.748;2023-04-25T14:14:56;7.72;;;3.53;;
6626;SDS011;3349;49.830;8.748;2023-04-25T14:17:23;7.20;;;3.50;;
6626;SDS011;3349;49.830;8.748;2023-04-25T14:19:51;9.82;;;4.18;;
6626;SDS011;3349;49.830;8.748;2023-04-25T14:22:18;8.57;;;4.43;;
6626;SDS011;3349;49.830;8.748;2023-04-25T14:24:45;8.68;;;3.63;;
6626;SDS011;3349;49.830;8.748;2023-04-25T14:27:12;6.68;;;2.88;;
6626;SDS011;3349;49.830;8.748;2023-04-25T14:29:39;12.23;;;3.63;;
6626;SDS011;3349;49.830;8.748;2023-04-25T14:32:06;6.00;;;3.20;;
6626;SDS011;3349;49.830;8.748;2023-04-25T14:34:33;7.05;;;3.03;;
6626;SDS011;3349;49.830;8.748;2023-04-25T14:37:01;7.07;;;3.42;;
6626;SDS011;3349;49.830;8.748;2023-04-25T14:39:28;10.63;;;3.33;;
6626;SDS011;3349;49.830;8.748;2023-04-25T14:41:55;6.82;;;3.38;;
6626;SDS011;3349;49.830;8.748;2023-04-25T14:44:21;6.82;;;3.92;;
6626;SDS011;3349;49.830;8.748;2023-04-25T14:46:48;10.05;;;3.42;;
6626;SDS011;3349;49.830;8.748;2023-04-25T14:49:16;8.95;;;4.03;;
6626;SDS011;3349;49.830;8.748;2023-04-25T14:51:43;8.35;;;3.28;;
6626;SDS011;3349;49.830;8.748;2023-04-25T14:54:12;6.68;;;3.30;;
6626;SDS011;3349;49.830;8.748;2023-04-25T14:56:38;7.20;;;3.08;;
6626;SDS011;3349;49.830;8.748;2023-04-25T14:59:05;12.05;;;3.72;;
6626;SDS011;3349;49.830;8.748;2023-04-25T15:01:32;13.05;;;3.65;;
6626;SDS011;3349;49.830;8.748;2023-04-25T15:03:59;9.15;;;3.78;;
6626;SDS011;3349;49.830;8.748;2023-04-25T15:06:26;9.23;;;3.67;;
6626;SDS011;3349;49.830;8.748;2023-04-25T15:08:54;7.10;;;3.53;;
6626;SDS011;3349;49.830;8.748;2023-04-25T15:11:23;8.02;;;3.65;;